Etusivu
METAR-TAF:

METAR-TAF

Lentoasemat :

Taylor County Airport

Medford, Wisconsin, Yhdysvallat

Leveyspiiri: 45-06-04N, Pituuspiiri: 090-18-12W, korkeus merenpinnasta: 448 m

Tämänhetkinen sää

Tämä raportti tehtiin 27 minuuttia sitten, kello 17.55 UTC
Tuuli 13 kn pohjoisesta puuskistuen 16 kn:hen
Lämpötila -5°C
Kosteus 58%
Ilmanpaine 1021 hPa
Näkyvyys: 16.1 km
Pilvistä 3600 ft:n korkeudessa

METAR: KMDZ 261755Z AUTO 35013G16KT 10SM OVC036 M05/M12 A3016 RMK AO2 T10541119 11049 21080

Aika: 12:22 (18:22 UTC)


TAF: puuttuu

Säähavainnot ja -ennusteet yli 4000 lentoasemalta (METAR- ja TAF-raportit).

Käytössä olevat sääasemat on merkitty karttaan keltaisilla ja punaisilla pisteillä.

Aseta hiiri pisteen päälle nähdäksesi sääaseman nimen.

Klikkaa sitten nähdäksesi säähavainnot ja -ennusteet.

Kartan vaihtaminen: klikkaa mustalla rastilla varustettuja vihreitä pisteitä, niin voit zoomata sisään; viivalla varustettua vihreää pistettä, niin voit zoomata ulos tai vihreitä nuolia, niin pääset viereisille kartoille.


METAR-TAF: